Terminal Aerodrome Forecast
Issued by NWS

Home | Current Version | Previous Version | Text Only | Print | Product List | Glossary On
Versions: 1 2 3 4 5 6 7 8 9 10 11 12 13 14 15 16 17 18
825
FTUS45 KRIW 232326
TAFCOD
TAF
KCOD 232326Z 2400/2424 34006KT P6SM VCSH BKN120
      TEMPO 2400/2401 VRB15G25KT
     FM240200 21006KT P6SM SCT110
     FM241700 01006KT P6SM SCT100 BKN150
      AMD LTD TO CLD VIS AND WIND=

USA.gov is the U.S. government's official web portal to all federal, state and local government web resources and services.